sensor_id;sensor_type;location;lat;lon;timestamp;P1;durP1;ratioP1;P2;durP2;ratioP2
72949;SDS011;64868;45.710;9.590;2023-05-17T00:00:37;14.57;;;9.07;;
72949;SDS011;64868;45.710;9.590;2023-05-17T00:03:07;13.95;;;8.88;;
72949;SDS011;64868;45.710;9.590;2023-05-17T00:05:37;12.10;;;7.85;;
72949;SDS011;64868;45.710;9.590;2023-05-17T00:08:10;11.48;;;7.05;;
72949;SDS011;64868;45.710;9.590;2023-05-17T00:10:40;11.10;;;7.18;;
72949;SDS011;64868;45.710;9.590;2023-05-17T00:13:10;14.63;;;8.77;;
72949;SDS011;64868;45.710;9.590;2023-05-17T00:15:43;13.90;;;9.25;;
72949;SDS011;64868;45.710;9.590;2023-05-17T00:18:13;13.38;;;8.10;;
72949;SDS011;64868;45.710;9.590;2023-05-17T00:20:43;12.05;;;7.85;;
72949;SDS011;64868;45.710;9.590;2023-05-17T00:23:11;10.77;;;7.05;;
72949;SDS011;64868;45.710;9.590;2023-05-17T00:25:41;11.40;;;6.82;;
72949;SDS011;64868;45.710;9.590;2023-05-17T00:28:13;11.18;;;7.70;;
72949;SDS011;64868;45.710;9.590;2023-05-17T00:30:41;16.90;;;8.95;;
72949;SDS011;64868;45.710;9.590;2023-05-17T00:33:11;13.50;;;9.10;;
72949;SDS011;64868;45.710;9.590;2023-05-17T00:35:44;12.88;;;9.15;;
72949;SDS011;64868;45.710;9.590;2023-05-17T00:38:17;12.85;;;7.80;;
72949;SDS011;64868;45.710;9.590;2023-05-17T00:40:47;15.05;;;7.65;;
72949;SDS011;64868;45.710;9.590;2023-05-17T00:43:20;10.18;;;6.68;;
72949;SDS011;64868;45.710;9.590;2023-05-17T00:45:47;11.20;;;7.72;;
72949;SDS011;64868;45.710;9.590;2023-05-17T00:48:18;10.93;;;6.47;;
72949;SDS011;64868;45.710;9.590;2023-05-17T00:50:51;9.98;;;5.82;;
72949;SDS011;64868;45.710;9.590;2023-05-17T00:53:22;10.80;;;6.60;;
72949;SDS011;64868;45.710;9.590;2023-05-17T00:55:55;12.80;;;6.85;;
72949;SDS011;64868;45.710;9.590;2023-05-17T00:58:28;12.70;;;7.30;;
72949;SDS011;64868;45.710;9.590;2023-05-17T01:01:01;10.95;;;6.80;;
72949;SDS011;64868;45.710;9.590;2023-05-17T01:03:28;10.57;;;6.38;;
72949;SDS011;64868;45.710;9.590;2023-05-17T01:05:59;11.48;;;6.95;;
72949;SDS011;64868;45.710;9.590;2023-05-17T01:08:31;10.68;;;6.35;;
72949;SDS011;64868;45.710;9.590;2023-05-17T01:13:51;10.98;;;6.75;;
72949;SDS011;64868;45.710;9.590;2023-05-17T01:17:27;11.35;;;6.93;;
72949;SDS011;64868;45.710;9.590;2023-05-17T01:19:33;10.27;;;7.20;;
72949;SDS011;64868;45.710;9.590;2023-05-17T01:25:26;10.65;;;7.13;;
72949;SDS011;64868;45.710;9.590;2023-05-17T01:28:04;14.05;;;7.97;;
72949;SDS011;64868;45.710;9.590;2023-05-17T01:30:38;13.05;;;7.13;;
72949;SDS011;64868;45.710;9.590;2023-05-17T01:33:14;10.23;;;6.40;;
72949;SDS011;64868;45.710;9.590;2023-05-17T01:35:48;10.52;;;7.22;;
72949;SDS011;64868;45.710;9.590;2023-05-17T01:38:20;11.93;;;7.80;;
72949;SDS011;64868;45.710;9.590;2023-05-17T01:41:00;10.50;;;6.95;;
72949;SDS011;64868;45.710;9.590;2023-05-17T01:43:45;12.00;;;6.65;;
72949;SDS011;64868;45.710;9.590;2023-05-17T01:49:01;15.05;;;8.95;;
72949;SDS011;64868;45.710;9.590;2023-05-17T01:51:37;13.90;;;8.43;;
72949;SDS011;64868;45.710;9.590;2023-05-17T01:54:13;12.30;;;7.60;;
72949;SDS011;64868;45.710;9.590;2023-05-17T01:56:48;13.57;;;8.50;;
72949;SDS011;64868;45.710;9.590;2023-05-17T01:59:25;14.15;;;8.85;;
72949;SDS011;64868;45.710;9.590;2023-05-17T02:01:58;17.13;;;10.55;;
72949;SDS011;64868;45.710;9.590;2023-05-17T02:04:35;15.82;;;9.38;;
72949;SDS011;64868;45.710;9.590;2023-05-17T02:07:07;13.90;;;9.60;;
72949;SDS011;64868;45.710;9.590;2023-05-17T02:09:37;13.77;;;8.95;;
72949;SDS011;64868;45.710;9.590;2023-05-17T02:12:05;14.27;;;9.68;;
72949;SDS011;64868;45.710;9.590;2023-05-17T02:14:38;14.35;;;8.57;;
72949;SDS011;64868;45.710;9.590;2023-05-17T02:17:08;13.50;;;9.00;;
72949;SDS011;64868;45.710;9.590;2023-05-17T02:19:40;12.77;;;9.27;;
72949;SDS011;64868;45.710;9.590;2023-05-17T02:22:10;11.50;;;8.50;;
72949;SDS011;64868;45.710;9.590;2023-05-17T02:24:43;14.68;;;8.40;;
72949;SDS011;64868;45.710;9.590;2023-05-17T02:27:16;13.50;;;9.15;;
72949;SDS011;64868;45.710;9.590;2023-05-17T02:29:48;12.90;;;8.68;;
72949;SDS011;64868;45.710;9.590;2023-05-17T02:32:21;12.35;;;8.05;;
72949;SDS011;64868;45.710;9.590;2023-05-17T02:34:54;12.52;;;7.97;;
72949;SDS011;64868;45.710;9.590;2023-05-17T02:37:24;11.60;;;7.80;;
72949;SDS011;64868;45.710;9.590;2023-05-17T02:39:56;12.15;;;8.60;;
72949;SDS011;64868;45.710;9.590;2023-05-17T02:42:27;13.13;;;7.97;;
72949;SDS011;64868;45.710;9.590;2023-05-17T02:44:59;12.77;;;8.10;;
72949;SDS011;64868;45.710;9.590;2023-05-17T02:47:27;15.05;;;9.10;;
72949;SDS011;64868;45.710;9.590;2023-05-17T02:49:59;15.05;;;9.80;;
72949;SDS011;64868;45.710;9.590;2023-05-17T02:52:27;12.45;;;8.13;;
72949;SDS011;64868;45.710;9.590;2023-05-17T02:54:57;12.38;;;7.95;;
72949;SDS011;64868;45.710;9.590;2023-05-17T02:57:30;13.27;;;8.52;;
72949;SDS011;64868;45.710;9.590;2023-05-17T03:00:02;12.88;;;8.30;;
72949;SDS011;64868;45.710;9.590;2023-05-17T03:02:36;13.38;;;8.98;;
72949;SDS011;64868;45.710;9.590;2023-05-17T03:05:07;13.30;;;9.05;;
72949;SDS011;64868;45.710;9.590;2023-05-17T03:07:40;10.98;;;7.57;;
72949;SDS011;64868;45.710;9.590;2023-05-17T03:10:10;11.63;;;6.88;;
72949;SDS011;64868;45.710;9.590;2023-05-17T03:12:40;11.80;;;7.00;;
72949;SDS011;64868;45.710;9.590;2023-05-17T03:15:13;12.57;;;8.35;;
72949;SDS011;64868;45.710;9.590;2023-05-17T03:17:43;14.10;;;9.05;;
72949;SDS011;64868;45.710;9.590;2023-05-17T03:20:11;13.52;;;9.05;;
72949;SDS011;64868;45.710;9.590;2023-05-17T03:22:43;16.45;;;10.45;;
72949;SDS011;64868;45.710;9.590;2023-05-17T03:25:11;17.05;;;10.63;;
72949;SDS011;64868;45.710;9.590;2023-05-17T03:27:42;13.57;;;8.98;;
72949;SDS011;64868;45.710;9.590;2023-05-17T03:30:15;18.42;;;11.25;;
72949;SDS011;64868;45.710;9.590;2023-05-17T03:32:47;16.83;;;10.63;;
72949;SDS011;64868;45.710;9.590;2023-05-17T03:35:17;14.02;;;9.40;;
72949;SDS011;64868;45.710;9.590;2023-05-17T03:37:48;15.20;;;9.32;;
72949;SDS011;64868;45.710;9.590;2023-05-17T03:40:18;15.32;;;9.45;;
72949;SDS011;64868;45.710;9.590;2023-05-17T03:42:50;14.55;;;9.65;;
72949;SDS011;64868;45.710;9.590;2023-05-17T03:45:20;13.82;;;8.77;;
72949;SDS011;64868;45.710;9.590;2023-05-17T03:47:53;11.57;;;8.13;;
72949;SDS011;64868;45.710;9.590;2023-05-17T03:50:26;12.07;;;7.55;;
72949;SDS011;64868;45.710;9.590;2023-05-17T03:52:58;14.52;;;9.82;;
72949;SDS011;64868;45.710;9.590;2023-05-17T03:55:31;13.65;;;9.40;;
72949;SDS011;64868;45.710;9.590;2023-05-17T03:58:01;13.32;;;8.60;;
72949;SDS011;64868;45.710;9.590;2023-05-17T04:00:33;12.52;;;8.68;;
72949;SDS011;64868;45.710;9.590;2023-05-17T04:03:06;16.23;;;9.27;;
72949;SDS011;64868;45.710;9.590;2023-05-17T04:05:39;16.48;;;9.70;;
72949;SDS011;64868;45.710;9.590;2023-05-17T04:08:11;14.85;;;9.15;;
72949;SDS011;64868;45.710;9.590;2023-05-17T04:10:44;13.68;;;8.98;;
72949;SDS011;64868;45.710;9.590;2023-05-17T04:13:17;15.07;;;10.07;;
72949;SDS011;64868;45.710;9.590;2023-05-17T04:15:47;12.38;;;8.15;;
72949;SDS011;64868;45.710;9.590;2023-05-17T04:18:18;13.10;;;8.80;;
72949;SDS011;64868;45.710;9.590;2023-05-17T04:20:45;12.77;;;9.40;;
72949;SDS011;64868;45.710;9.590;2023-05-17T04:23:15;15.38;;;10.05;;
72949;SDS011;64868;45.710;9.590;2023-05-17T04:25:46;18.63;;;10.10;;
72949;SDS011;64868;45.710;9.590;2023-05-17T04:28:18;12.10;;;8.35;;
72949;SDS011;64868;45.710;9.590;2023-05-17T04:30:48;15.27;;;9.05;;
72949;SDS011;64868;45.710;9.590;2023-05-17T04:33:21;13.20;;;8.82;;
72949;SDS011;64868;45.710;9.590;2023-05-17T04:35:53;13.80;;;8.55;;
72949;SDS011;64868;45.710;9.590;2023-05-17T04:38:26;12.85;;;8.57;;
72949;SDS011;64868;45.710;9.590;2023-05-17T04:41:02;12.95;;;8.20;;
72949;SDS011;64868;45.710;9.590;2023-05-17T04:43:35;16.38;;;11.13;;
72949;SDS011;64868;45.710;9.590;2023-05-17T04:46:08;13.95;;;8.95;;
72949;SDS011;64868;45.710;9.590;2023-05-17T04:48:36;15.65;;;9.65;;
72949;SDS011;64868;45.710;9.590;2023-05-17T04:51:05;16.38;;;9.77;;
72949;SDS011;64868;45.710;9.590;2023-05-17T04:53:35;13.85;;;9.00;;
72949;SDS011;64868;45.710;9.590;2023-05-17T04:56:08;17.83;;;9.48;;
72949;SDS011;64868;45.710;9.590;2023-05-17T04:58:38;13.75;;;9.77;;
72949;SDS011;64868;45.710;9.590;2023-05-17T05:01:10;17.13;;;9.18;;
72949;SDS011;64868;45.710;9.590;2023-05-17T05:03:43;15.20;;;9.85;;
72949;SDS011;64868;45.710;9.590;2023-05-17T05:06:16;12.40;;;8.38;;
72949;SDS011;64868;45.710;9.590;2023-05-17T05:08:48;12.38;;;8.15;;
72949;SDS011;64868;45.710;9.590;2023-05-17T05:11:18;13.63;;;8.45;;
72949;SDS011;64868;45.710;9.590;2023-05-17T05:13:46;14.25;;;8.40;;
72949;SDS011;64868;45.710;9.590;2023-05-17T05:16:19;11.32;;;7.32;;
72949;SDS011;64868;45.710;9.590;2023-05-17T05:18:51;13.68;;;8.43;;
72949;SDS011;64868;45.710;9.590;2023-05-17T05:21:24;11.70;;;7.35;;
72949;SDS011;64868;45.710;9.590;2023-05-17T05:23:56;12.45;;;8.15;;
72949;SDS011;64868;45.710;9.590;2023-05-17T05:26:30;11.18;;;7.43;;
72949;SDS011;64868;45.710;9.590;2023-05-17T05:29:00;14.23;;;8.98;;
72949;SDS011;64868;45.710;9.590;2023-05-17T05:31:33;14.40;;;9.25;;
72949;SDS011;64868;45.710;9.590;2023-05-17T05:34:05;15.20;;;9.35;;
72949;SDS011;64868;45.710;9.590;2023-05-17T05:36:38;16.92;;;10.55;;
72949;SDS011;64868;45.710;9.590;2023-05-17T05:39:11;32.08;;;15.88;;
72949;SDS011;64868;45.710;9.590;2023-05-17T05:41:43;27.58;;;15.70;;
72949;SDS011;64868;45.710;9.590;2023-05-17T05:44:13;25.85;;;14.25;;
72949;SDS011;64868;45.710;9.590;2023-05-17T05:46:44;23.45;;;12.45;;
72949;SDS011;64868;45.710;9.590;2023-05-17T05:49:16;20.73;;;11.90;;
72949;SDS011;64868;45.710;9.590;2023-05-17T05:51:48;20.50;;;12.25;;
72949;SDS011;64868;45.710;9.590;2023-05-17T05:54:21;20.98;;;11.05;;
72949;SDS011;64868;45.710;9.590;2023-05-17T05:56:51;17.95;;;10.75;;
72949;SDS011;64868;45.710;9.590;2023-05-17T05:59:22;21.33;;;13.13;;
72949;SDS011;64868;45.710;9.590;2023-05-17T06:01:52;23.35;;;12.55;;
72949;SDS011;64868;45.710;9.590;2023-05-17T06:04:25;17.85;;;11.35;;
72949;SDS011;64868;45.710;9.590;2023-05-17T06:06:55;17.27;;;9.80;;
72949;SDS011;64868;45.710;9.590;2023-05-17T06:09:22;15.98;;;10.85;;
72949;SDS011;64868;45.710;9.590;2023-05-17T06:11:55;19.02;;;13.05;;
72949;SDS011;64868;45.710;9.590;2023-05-17T06:14:27;17.40;;;11.30;;
72949;SDS011;64868;45.710;9.590;2023-05-17T06:16:57;16.25;;;10.40;;
72949;SDS011;64868;45.710;9.590;2023-05-17T06:19:30;17.85;;;11.65;;
72949;SDS011;64868;45.710;9.590;2023-05-17T06:22:00;21.55;;;11.43;;
72949;SDS011;64868;45.710;9.590;2023-05-17T06:24:30;19.08;;;11.88;;
72949;SDS011;64868;45.710;9.590;2023-05-17T06:27:00;21.17;;;12.25;;
72949;SDS011;64868;45.710;9.590;2023-05-17T06:29:33;19.80;;;13.02;;
72949;SDS011;64868;45.710;9.590;2023-05-17T06:32:06;22.42;;;14.75;;
72949;SDS011;64868;45.710;9.590;2023-05-17T06:34:33;22.15;;;15.50;;
72949;SDS011;64868;45.710;9.590;2023-05-17T06:37:06;23.98;;;16.15;;
72949;SDS011;64868;45.710;9.590;2023-05-17T06:39:38;20.52;;;15.20;;
72949;SDS011;64868;45.710;9.590;2023-05-17T06:42:09;24.17;;;17.15;;
72949;SDS011;64868;45.710;9.590;2023-05-17T06:44:39;24.65;;;17.58;;
72949;SDS011;64868;45.710;9.590;2023-05-17T06:47:12;28.75;;;17.23;;
72949;SDS011;64868;45.710;9.590;2023-05-17T06:49:44;19.92;;;14.88;;
72949;SDS011;64868;45.710;9.590;2023-05-17T06:52:14;19.63;;;15.20;;
72949;SDS011;64868;45.710;9.590;2023-05-17T06:54:47;23.10;;;16.17;;
72949;SDS011;64868;45.710;9.590;2023-05-17T06:57:20;23.77;;;16.10;;
72949;SDS011;64868;45.710;9.590;2023-05-17T06:59:50;26.00;;;16.63;;
72949;SDS011;64868;45.710;9.590;2023-05-17T07:02:20;23.27;;;17.40;;
72949;SDS011;64868;45.710;9.590;2023-05-17T07:04:50;26.40;;;18.70;;
72949;SDS011;64868;45.710;9.590;2023-05-17T07:07:23;22.95;;;16.25;;
72949;SDS011;64868;45.710;9.590;2023-05-17T07:09:51;25.90;;;19.02;;
72949;SDS011;64868;45.710;9.590;2023-05-17T07:12:21;24.63;;;16.60;;
72949;SDS011;64868;45.710;9.590;2023-05-17T07:14:49;21.23;;;14.95;;
72949;SDS011;64868;45.710;9.590;2023-05-17T07:17:21;26.23;;;17.58;;
72949;SDS011;64868;45.710;9.590;2023-05-17T07:19:54;21.80;;;17.00;;
72949;SDS011;64868;45.710;9.590;2023-05-17T07:22:27;19.55;;;14.70;;
72949;SDS011;64868;45.710;9.590;2023-05-17T07:24:59;21.13;;;13.88;;
72949;SDS011;64868;45.710;9.590;2023-05-17T07:27:32;21.45;;;15.07;;
72949;SDS011;64868;45.710;9.590;2023-05-17T07:30:02;22.73;;;14.25;;
72949;SDS011;64868;45.710;9.590;2023-05-17T07:32:30;19.55;;;11.82;;
72949;SDS011;64868;45.710;9.590;2023-05-17T07:35:02;15.93;;;10.40;;
72949;SDS011;64868;45.710;9.590;2023-05-17T07:37:31;15.80;;;10.70;;
72949;SDS011;64868;45.710;9.590;2023-05-17T07:40:00;17.20;;;10.05;;
72949;SDS011;64868;45.710;9.590;2023-05-17T07:42:33;18.40;;;11.15;;
72949;SDS011;64868;45.710;9.590;2023-05-17T07:45:06;20.17;;;9.60;;
72949;SDS011;64868;45.710;9.590;2023-05-17T07:47:40;17.13;;;9.85;;
72949;SDS011;64868;45.710;9.590;2023-05-17T07:50:10;13.13;;;8.55;;
72949;SDS011;64868;45.710;9.590;2023-05-17T07:52:40;14.00;;;7.57;;
72949;SDS011;64868;45.710;9.590;2023-05-17T07:55:10;13.20;;;6.90;;
72949;SDS011;64868;45.710;9.590;2023-05-17T07:57:42;11.73;;;7.60;;
72949;SDS011;64868;45.710;9.590;2023-05-17T08:00:15;12.35;;;6.90;;
72949;SDS011;64868;45.710;9.590;2023-05-17T08:02:49;11.68;;;5.75;;
72949;SDS011;64868;45.710;9.590;2023-05-17T08:05:22;11.98;;;6.00;;
72949;SDS011;64868;45.710;9.590;2023-05-17T08:07:54;9.48;;;5.25;;
72949;SDS011;64868;45.710;9.590;2023-05-17T08:10:28;10.00;;;5.53;;
72949;SDS011;64868;45.710;9.590;2023-05-17T08:12:58;11.05;;;5.28;;
72949;SDS011;64868;45.710;9.590;2023-05-17T08:15:29;11.77;;;5.82;;
72949;SDS011;64868;45.710;9.590;2023-05-17T08:18:00;10.98;;;5.68;;
72949;SDS011;64868;45.710;9.590;2023-05-17T08:20:32;12.07;;;6.68;;
72949;SDS011;64868;45.710;9.590;2023-05-17T08:23:03;14.20;;;7.50;;
72949;SDS011;64868;45.710;9.590;2023-05-17T08:25:35;13.52;;;6.38;;
72949;SDS011;64868;45.710;9.590;2023-05-17T08:28:08;13.02;;;6.20;;
72949;SDS011;64868;45.710;9.590;2023-05-17T08:30:40;10.55;;;6.13;;
72949;SDS011;64868;45.710;9.590;2023-05-17T08:33:10;10.60;;;5.70;;
72949;SDS011;64868;45.710;9.590;2023-05-17T08:35:43;10.07;;;6.18;;
72949;SDS011;64868;45.710;9.590;2023-05-17T08:38:13;16.85;;;6.78;;
72949;SDS011;64868;45.710;9.590;2023-05-17T08:40:50;11.77;;;6.32;;
72949;SDS011;64868;45.710;9.590;2023-05-17T08:43:26;10.00;;;6.10;;
72949;SDS011;64868;45.710;9.590;2023-05-17T08:45:59;18.75;;;10.82;;
72949;SDS011;64868;45.710;9.590;2023-05-17T08:48:30;43.35;;;25.80;;
72949;SDS011;64868;45.710;9.590;2023-05-17T08:51:03;41.67;;;24.98;;
72949;SDS011;64868;45.710;9.590;2023-05-17T08:53:36;23.90;;;14.38;;
72949;SDS011;64868;45.710;9.590;2023-05-17T08:56:08;19.42;;;10.32;;
72949;SDS011;64868;45.710;9.590;2023-05-17T08:58:43;14.10;;;8.60;;
72949;SDS011;64868;45.710;9.590;2023-05-17T09:01:15;10.20;;;5.95;;
72949;SDS011;64868;45.710;9.590;2023-05-17T09:03:47;11.93;;;6.00;;
72949;SDS011;64868;45.710;9.590;2023-05-17T09:06:23;12.02;;;6.60;;
72949;SDS011;64868;45.710;9.590;2023-05-17T09:08:54;10.90;;;7.20;;
72949;SDS011;64868;45.710;9.590;2023-05-17T09:11:26;11.18;;;6.07;;
72949;SDS011;64868;45.710;9.590;2023-05-17T09:14:01;10.75;;;6.50;;
72949;SDS011;64868;45.710;9.590;2023-05-17T09:16:36;13.32;;;7.53;;
72949;SDS011;64868;45.710;9.590;2023-05-17T09:19:09;15.52;;;8.57;;
72949;SDS011;64868;45.710;9.590;2023-05-17T09:21:48;11.20;;;6.88;;
72949;SDS011;64868;45.710;9.590;2023-05-17T09:24:28;10.70;;;6.93;;
72949;SDS011;64868;45.710;9.590;2023-05-17T09:27:02;12.35;;;7.75;;
72949;SDS011;64868;45.710;9.590;2023-05-17T09:29:35;11.32;;;6.45;;
72949;SDS011;64868;45.710;9.590;2023-05-17T09:32:14;9.73;;;5.22;;
72949;SDS011;64868;45.710;9.590;2023-05-17T09:34:47;9.70;;;5.28;;
72949;SDS011;64868;45.710;9.590;2023-05-17T09:37:17;9.73;;;5.40;;
72949;SDS011;64868;45.710;9.590;2023-05-17T09:39:53;8.88;;;4.97;;
72949;SDS011;64868;45.710;9.590;2023-05-17T09:42:26;9.73;;;4.88;;
72949;SDS011;64868;45.710;9.590;2023-05-17T09:44:56;16.73;;;7.45;;
72949;SDS011;64868;45.710;9.590;2023-05-17T09:47:28;12.85;;;6.47;;
72949;SDS011;64868;45.710;9.590;2023-05-17T09:50:01;10.82;;;5.50;;
72949;SDS011;64868;45.710;9.590;2023-05-17T09:52:34;10.45;;;5.30;;
72949;SDS011;64868;45.710;9.590;2023-05-17T09:55:08;11.65;;;5.38;;
72949;SDS011;64868;45.710;9.590;2023-05-17T09:57:41;11.85;;;5.70;;
72949;SDS011;64868;45.710;9.590;2023-05-17T10:00:14;11.00;;;5.50;;
72949;SDS011;64868;45.710;9.590;2023-05-17T10:02:46;11.90;;;5.82;;
72949;SDS011;64868;45.710;9.590;2023-05-17T10:05:19;14.25;;;6.50;;
72949;SDS011;64868;45.710;9.590;2023-05-17T10:07:50;10.25;;;5.28;;
72949;SDS011;64868;45.710;9.590;2023-05-17T10:10:24;11.38;;;6.00;;
72949;SDS011;64868;45.710;9.590;2023-05-17T10:12:56;11.95;;;5.85;;
72949;SDS011;64868;45.710;9.590;2023-05-17T10:15:27;10.77;;;5.57;;
72949;SDS011;64868;45.710;9.590;2023-05-17T10:18:00;11.65;;;5.55;;
72949;SDS011;64868;45.710;9.590;2023-05-17T10:20:34;13.10;;;6.13;;
72949;SDS011;64868;45.710;9.590;2023-05-17T10:23:07;9.45;;;5.88;;
72949;SDS011;64868;45.710;9.590;2023-05-17T10:25:38;11.82;;;6.20;;
72949;SDS011;64868;45.710;9.590;2023-05-17T10:28:08;10.57;;;6.82;;
72949;SDS011;64868;45.710;9.590;2023-05-17T10:30:39;13.05;;;7.75;;
72949;SDS011;64868;45.710;9.590;2023-05-17T10:33:11;12.45;;;7.82;;
72949;SDS011;64868;45.710;9.590;2023-05-17T10:35:42;11.75;;;7.60;;
72949;SDS011;64868;45.710;9.590;2023-05-17T10:38:13;10.20;;;6.68;;
72949;SDS011;64868;45.710;9.590;2023-05-17T10:40:46;11.27;;;7.53;;
72949;SDS011;64868;45.710;9.590;2023-05-17T10:43:15;15.15;;;9.15;;
72949;SDS011;64868;45.710;9.590;2023-05-17T10:45:49;16.13;;;8.23;;
72949;SDS011;64868;45.710;9.590;2023-05-17T10:48:22;9.13;;;5.47;;
72949;SDS011;64868;45.710;9.590;2023-05-17T10:50:57;9.95;;;5.30;;
72949;SDS011;64868;45.710;9.590;2023-05-17T10:53:36;7.35;;;4.05;;
72949;SDS011;64868;45.710;9.590;2023-05-17T10:56:33;8.80;;;4.40;;
72949;SDS011;64868;45.710;9.590;2023-05-17T11:10:00;8.60;;;4.78;;
72949;SDS011;64868;45.710;9.590;2023-05-17T11:12:46;9.25;;;5.32;;
72949;SDS011;64868;45.710;9.590;2023-05-17T11:15:22;8.80;;;4.50;;
72949;SDS011;64868;45.710;9.590;2023-05-17T11:17:53;10.93;;;6.40;;
72949;SDS011;64868;45.710;9.590;2023-05-17T11:23:00;8.48;;;4.50;;
72949;SDS011;64868;45.710;9.590;2023-05-17T11:25:45;7.55;;;4.38;;
72949;SDS011;64868;45.710;9.590;2023-05-17T11:28:20;9.40;;;5.20;;
72949;SDS011;64868;45.710;9.590;2023-05-17T11:30:52;8.07;;;4.97;;
72949;SDS011;64868;45.710;9.590;2023-05-17T11:33:41;8.98;;;5.28;;
72949;SDS011;64868;45.710;9.590;2023-05-17T11:36:14;10.52;;;5.60;;
72949;SDS011;64868;45.710;9.590;2023-05-17T11:38:48;12.40;;;5.93;;
72949;SDS011;64868;45.710;9.590;2023-05-17T11:41:38;11.98;;;7.00;;
72949;SDS011;64868;45.710;9.590;2023-05-17T11:44:16;9.95;;;6.30;;
72949;SDS011;64868;45.710;9.590;2023-05-17T11:46:59;12.90;;;5.93;;
72949;SDS011;64868;45.710;9.590;2023-05-17T11:49:41;9.48;;;5.70;;
72949;SDS011;64868;45.710;9.590;2023-05-17T11:52:11;9.82;;;5.50;;
72949;SDS011;64868;45.710;9.590;2023-05-17T11:54:45;8.98;;;5.65;;
72949;SDS011;64868;45.710;9.590;2023-05-17T11:57:18;9.52;;;5.75;;
72949;SDS011;64868;45.710;9.590;2023-05-17T11:59:51;10.32;;;6.18;;
72949;SDS011;64868;45.710;9.590;2023-05-17T12:02:30;11.60;;;6.65;;
72949;SDS011;64868;45.710;9.590;2023-05-17T12:04:58;12.25;;;6.63;;
72949;SDS011;64868;45.710;9.590;2023-05-17T12:07:28;11.93;;;6.38;;
72949;SDS011;64868;45.710;9.590;2023-05-17T12:10:02;10.43;;;5.53;;
72949;SDS011;64868;45.710;9.590;2023-05-17T12:12:32;11.18;;;6.43;;
72949;SDS011;64868;45.710;9.590;2023-05-17T12:15:02;10.80;;;6.60;;
72949;SDS011;64868;45.710;9.590;2023-05-17T12:17:32;13.07;;;7.13;;
72949;SDS011;64868;45.710;9.590;2023-05-17T12:20:08;10.23;;;6.45;;
72949;SDS011;64868;45.710;9.590;2023-05-17T12:22:57;12.40;;;7.00;;
72949;SDS011;64868;45.710;9.590;2023-05-17T12:25:29;11.32;;;6.88;;
72949;SDS011;64868;45.710;9.590;2023-05-17T12:28:18;11.02;;;6.63;;
72949;SDS011;64868;45.710;9.590;2023-05-17T12:30:52;11.15;;;7.00;;
72949;SDS011;64868;45.710;9.590;2023-05-17T12:33:29;10.63;;;6.30;;
72949;SDS011;64868;45.710;9.590;2023-05-17T12:36:00;12.93;;;5.70;;
72949;SDS011;64868;45.710;9.590;2023-05-17T12:38:32;10.23;;;6.25;;
72949;SDS011;64868;45.710;9.590;2023-05-17T12:41:06;8.95;;;6.35;;
72949;SDS011;64868;45.710;9.590;2023-05-17T12:43:42;11.52;;;6.00;;
72949;SDS011;64868;45.710;9.590;2023-05-17T12:46:14;10.70;;;6.28;;
72949;SDS011;64868;45.710;9.590;2023-05-17T12:48:48;9.98;;;5.85;;
72949;SDS011;64868;45.710;9.590;2023-05-17T12:51:21;10.57;;;5.90;;
72949;SDS011;64868;45.710;9.590;2023-05-17T12:53:54;9.23;;;5.60;;
72949;SDS011;64868;45.710;9.590;2023-05-17T12:56:30;9.95;;;5.75;;
72949;SDS011;64868;45.710;9.590;2023-05-17T13:01:47;9.88;;;5.20;;
72949;SDS011;64868;45.710;9.590;2023-05-17T13:04:19;9.73;;;5.65;;
72949;SDS011;64868;45.710;9.590;2023-05-17T13:09:26;10.90;;;4.85;;
72949;SDS011;64868;45.710;9.590;2023-05-17T13:12:03;8.88;;;4.88;;
72949;SDS011;64868;45.710;9.590;2023-05-17T13:14:35;8.82;;;3.80;;
72949;SDS011;64868;45.710;9.590;2023-05-17T13:17:05;11.20;;;4.50;;
72949;SDS011;64868;45.710;9.590;2023-05-17T13:19:37;10.65;;;4.15;;
72949;SDS011;64868;45.710;9.590;2023-05-17T13:22:09;9.68;;;5.50;;
72949;SDS011;64868;45.710;9.590;2023-05-17T13:24:37;9.00;;;5.28;;
72949;SDS011;64868;45.710;9.590;2023-05-17T13:27:11;9.88;;;5.63;;
72949;SDS011;64868;45.710;9.590;2023-05-17T13:29:44;9.77;;;5.07;;
72949;SDS011;64868;45.710;9.590;2023-05-17T13:32:17;9.70;;;5.30;;
72949;SDS011;64868;45.710;9.590;2023-05-17T13:34:47;8.15;;;4.95;;
72949;SDS011;64868;45.710;9.590;2023-05-17T13:37:17;9.38;;;4.72;;
72949;SDS011;64868;45.710;9.590;2023-05-17T13:39:49;8.48;;;4.93;;
72949;SDS011;64868;45.710;9.590;2023-05-17T13:42:22;10.63;;;5.10;;
72949;SDS011;64868;45.710;9.590;2023-05-17T13:44:55;7.55;;;4.68;;
72949;SDS011;64868;45.710;9.590;2023-05-17T13:47:27;10.07;;;4.97;;
72949;SDS011;64868;45.710;9.590;2023-05-17T13:49:57;9.10;;;5.13;;
72949;SDS011;64868;45.710;9.590;2023-05-17T13:52:26;10.55;;;5.07;;
72949;SDS011;64868;45.710;9.590;2023-05-17T13:54:56;11.40;;;5.22;;
72949;SDS011;64868;45.710;9.590;2023-05-17T13:57:26;15.70;;;4.95;;
72949;SDS011;64868;45.710;9.590;2023-05-17T13:59:59;11.48;;;5.18;;
72949;SDS011;64868;45.710;9.590;2023-05-17T14:02:32;12.73;;;4.78;;
72949;SDS011;64868;45.710;9.590;2023-05-17T14:05:02;8.23;;;4.53;;
72949;SDS011;64868;45.710;9.590;2023-05-17T14:07:35;8.45;;;4.18;;
72949;SDS011;64868;45.710;9.590;2023-05-17T14:10:07;8.15;;;4.72;;
72949;SDS011;64868;45.710;9.590;2023-05-17T14:12:36;10.07;;;4.10;;
72949;SDS011;64868;45.710;9.590;2023-05-17T14:15:08;9.65;;;4.43;;
72949;SDS011;64868;45.710;9.590;2023-05-17T14:17:42;8.75;;;4.00;;
72949;SDS011;64868;45.710;9.590;2023-05-17T14:20:15;8.02;;;4.50;;
72949;SDS011;64868;45.710;9.590;2023-05-17T14:22:43;8.85;;;4.43;;
72949;SDS011;64868;45.710;9.590;2023-05-17T14:25:13;8.13;;;4.28;;
72949;SDS011;64868;45.710;9.590;2023-05-17T14:27:45;9.15;;;4.25;;
72949;SDS011;64868;45.710;9.590;2023-05-17T14:30:18;7.65;;;4.18;;
72949;SDS011;64868;45.710;9.590;2023-05-17T14:32:48;7.57;;;3.88;;
72949;SDS011;64868;45.710;9.590;2023-05-17T14:35:16;8.68;;;4.70;;
72949;SDS011;64868;45.710;9.590;2023-05-17T14:37:49;6.95;;;4.40;;
72949;SDS011;64868;45.710;9.590;2023-05-17T14:40:19;7.38;;;4.18;;
72949;SDS011;64868;45.710;9.590;2023-05-17T14:42:49;6.82;;;3.85;;
72949;SDS011;64868;45.710;9.590;2023-05-17T14:45:19;8.63;;;4.80;;
72949;SDS011;64868;45.710;9.590;2023-05-17T14:47:46;9.10;;;4.35;;
72949;SDS011;64868;45.710;9.590;2023-05-17T14:50:19;7.05;;;4.07;;
72949;SDS011;64868;45.710;9.590;2023-05-17T14:52:52;8.18;;;4.00;;
72949;SDS011;64868;45.710;9.590;2023-05-17T14:55:24;7.53;;;4.10;;
72949;SDS011;64868;45.710;9.590;2023-05-17T14:57:57;7.45;;;4.22;;
72949;SDS011;64868;45.710;9.590;2023-05-17T15:00:29;6.95;;;3.92;;
72949;SDS011;64868;45.710;9.590;2023-05-17T15:03:02;8.02;;;4.10;;
72949;SDS011;64868;45.710;9.590;2023-05-17T15:05:32;14.20;;;4.30;;
72949;SDS011;64868;45.710;9.590;2023-05-17T15:08:02;9.85;;;4.25;;
72949;SDS011;64868;45.710;9.590;2023-05-17T15:10:33;6.45;;;3.47;;
72949;SDS011;64868;45.710;9.590;2023-05-17T15:13:03;10.75;;;5.05;;
72949;SDS011;64868;45.710;9.590;2023-05-17T15:15:36;6.93;;;3.70;;
72949;SDS011;64868;45.710;9.590;2023-05-17T15:18:06;8.43;;;4.28;;
72949;SDS011;64868;45.710;9.590;2023-05-17T15:20:39;10.20;;;4.65;;
72949;SDS011;64868;45.710;9.590;2023-05-17T15:23:08;8.38;;;4.40;;
72949;SDS011;64868;45.710;9.590;2023-05-17T15:25:38;7.32;;;4.07;;
72949;SDS011;64868;45.710;9.590;2023-05-17T15:28:08;7.22;;;3.92;;
72949;SDS011;64868;45.710;9.590;2023-05-17T15:30:36;7.57;;;4.07;;
72949;SDS011;64868;45.710;9.590;2023-05-17T15:33:06;9.75;;;4.45;;